createdAt,value
2019-05-29T00:01:36.604Z,7.17
2019-05-29T00:04:10.816Z,6.90
2019-05-29T00:06:44.085Z,7.10
2019-05-29T00:09:18.452Z,6.80
2019-05-29T00:11:52.836Z,7.03
2019-05-29T00:14:27.608Z,7.40
2019-05-29T00:17:01.613Z,7.83
2019-05-29T00:19:33.011Z,7.33
2019-05-29T00:22:08.865Z,8.43
2019-05-29T00:24:43.409Z,7.97
2019-05-29T00:27:15.621Z,8.07
2019-05-29T00:29:52.107Z,7.90
2019-05-29T00:32:26.953Z,7.80
2019-05-29T00:35:00.188Z,7.20
2019-05-29T00:37:32.149Z,8.60
2019-05-29T00:40:05.173Z,8.10
2019-05-29T00:42:39.963Z,8.37
2019-05-29T00:45:13.428Z,8.67
2019-05-29T00:48:07.610Z,9.70
2019-05-29T00:50:42.113Z,7.80
2019-05-29T00:53:18.443Z,8.67
2019-05-29T00:55:59.268Z,8.73
2019-05-29T00:58:34.587Z,8.83
2019-05-29T01:01:11.362Z,9.10
2019-05-29T01:03:45.144Z,10.07
2019-05-29T01:06:20.260Z,9.97
2019-05-29T01:08:55.993Z,10.80
2019-05-29T01:11:29.319Z,9.50
2019-05-29T01:14:05.450Z,10.47
2019-05-29T01:16:38.399Z,10.63
2019-05-29T01:19:26.436Z,9.73
2019-05-29T01:22:00.057Z,10.07
2019-05-29T01:24:34.402Z,10.10
2019-05-29T01:27:10.092Z,10.23
2019-05-29T01:29:41.475Z,9.20
2019-05-29T01:32:19.607Z,10.20
2019-05-29T01:34:54.217Z,10.20
2019-05-29T01:37:26.528Z,10.70
2019-05-29T01:39:59.804Z,10.57
2019-05-29T01:42:33.585Z,10.30
2019-05-29T01:45:08.784Z,10.50
2019-05-29T01:47:41.489Z,9.90
2019-05-29T01:50:34.490Z,11.27
2019-05-29T01:53:08.413Z,10.40
2019-05-29T01:55:49.108Z,11.27
2019-05-29T01:58:21.894Z,9.87
2019-05-29T02:00:55.421Z,10.70
2019-05-29T02:03:43.765Z,9.50
2019-05-29T02:06:19.995Z,8.73
2019-05-29T02:08:53.676Z,8.30
2019-05-29T02:11:25.881Z,9.40
2019-05-29T02:13:59.546Z,8.17
2019-05-29T02:16:32.659Z,8.10
2019-05-29T02:19:06.113Z,7.83
2019-05-29T02:21:38.941Z,7.73
2019-05-29T02:24:11.618Z,8.03
2019-05-29T02:26:45.748Z,8.27
2019-05-29T02:29:22.894Z,7.90
2019-05-29T02:31:56.897Z,7.87
2019-05-29T02:34:29.961Z,7.40
2019-05-29T02:37:01.772Z,6.57
2019-05-29T02:39:35.043Z,7.00
2019-05-29T02:42:07.752Z,6.80
2019-05-29T02:44:41.022Z,6.83
2019-05-29T02:47:13.716Z,5.70
2019-05-29T02:49:49.611Z,5.50
2019-05-29T02:52:26.332Z,4.50
2019-05-29T02:54:58.751Z,4.83
2019-05-29T02:57:31.822Z,4.17
2019-05-29T03:00:05.393Z,4.77
2019-05-29T03:02:38.004Z,4.63
2019-05-29T03:05:11.755Z,4.67
2019-05-29T03:07:55.413Z,4.00
2019-05-29T03:10:36.541Z,3.90
2019-05-29T03:13:08.782Z,3.77
2019-05-29T03:16:08.739Z,3.10
2019-05-29T03:18:28.141Z,3.10
2019-05-29T03:21:01.208Z,3.50
2019-05-29T03:23:36.498Z,3.57
2019-05-29T03:26:30.318Z,3.50
2019-05-29T03:29:02.011Z,3.50
2019-05-29T03:31:46.625Z,3.17
2019-05-29T03:34:16.941Z,3.10
2019-05-29T03:36:53.962Z,2.80
2019-05-29T03:39:26.442Z,3.40
2019-05-29T03:42:00.619Z,3.17
2019-05-29T03:44:35.438Z,3.87
2019-05-29T03:47:11.907Z,3.70
2019-05-29T03:49:44.768Z,4.07
2019-05-29T03:52:17.246Z,4.40
2019-05-29T03:54:49.127Z,4.00
2019-05-29T03:57:23.038Z,4.30
2019-05-29T03:59:55.125Z,4.33
2019-05-29T04:02:28.560Z,4.27
2019-05-29T04:05:04.153Z,4.27
2019-05-29T04:07:40.381Z,4.73
2019-05-29T04:10:49.846Z,4.80
2019-05-29T04:13:34.101Z,5.20
2019-05-29T04:16:08.325Z,5.73
2019-05-29T04:18:42.585Z,5.47
2019-05-29T04:21:18.006Z,5.40
2019-05-29T04:23:55.239Z,5.37
2019-05-29T04:26:27.924Z,6.13
2019-05-29T04:29:11.127Z,5.90
2019-05-29T04:31:44.416Z,5.73
2019-05-29T04:34:18.109Z,5.87
2019-05-29T04:36:51.946Z,5.70
2019-05-29T04:39:28.411Z,5.87
2019-05-29T04:42:04.166Z,6.60
2019-05-29T04:44:38.957Z,6.07
2019-05-29T04:47:12.534Z,6.53
2019-05-29T04:49:46.501Z,6.00
2019-05-29T04:52:20.009Z,5.77
2019-05-29T04:54:53.476Z,7.03
2019-05-29T04:57:26.201Z,5.87
2019-05-29T04:59:58.615Z,6.43
2019-05-29T05:02:35.802Z,6.93
2019-05-29T05:05:09.745Z,6.23
2019-05-29T05:07:47.550Z,7.07
2019-05-29T05:10:46.098Z,6.90
2019-05-29T05:13:19.903Z,7.30
2019-05-29T05:15:53.575Z,7.03
2019-05-29T05:18:26.464Z,6.70
2019-05-29T05:21:00.861Z,6.50
2019-05-29T05:23:32.359Z,7.73
2019-05-29T05:26:05.939Z,7.37
2019-05-29T05:28:38.525Z,7.17
2019-05-29T05:31:14.275Z,7.33
2019-05-29T05:33:50.251Z,7.20
2019-05-29T05:36:26.249Z,7.70
2019-05-29T05:38:57.656Z,7.50
2019-05-29T05:41:30.818Z,8.37
2019-05-29T05:44:02.721Z,8.70
2019-05-29T05:46:39.400Z,7.83
2019-05-29T05:49:11.744Z,8.17
2019-05-29T05:51:45.675Z,8.50
2019-05-29T05:54:19.412Z,9.03
2019-05-29T05:56:53.926Z,8.40
2019-05-29T05:59:26.664Z,9.23
2019-05-29T06:02:00.034Z,8.20
2019-05-29T06:04:35.865Z,8.40
2019-05-29T06:07:08.824Z,8.43
2019-05-29T06:09:42.636Z,8.90
2019-05-29T06:12:15.068Z,9.10
2019-05-29T06:14:47.960Z,9.93
2019-05-29T06:17:22.129Z,10.43
2019-05-29T06:19:56.671Z,10.37
2019-05-29T06:22:29.854Z,9.53
2019-05-29T06:25:02.910Z,10.17
2019-05-29T06:27:37.050Z,10.43
2019-05-29T06:30:12.867Z,9.90
2019-05-29T06:32:46.454Z,10.13
2019-05-29T06:35:37.920Z,10.90
2019-05-29T06:38:10.736Z,10.47
2019-05-29T06:40:44.019Z,11.50
2019-05-29T06:43:31.695Z,11.27
2019-05-29T06:46:04.167Z,10.47
2019-05-29T06:48:46.656Z,9.70
2019-05-29T06:51:11.281Z,9.80
2019-05-29T06:53:45.390Z,9.77
2019-05-29T06:56:20.071Z,11.00
2019-05-29T06:58:54.132Z,9.70
2019-05-29T07:01:27.943Z,9.40
2019-05-29T07:04:11.967Z,8.63
2019-05-29T07:06:36.519Z,7.70
2019-05-29T07:09:09.866Z,8.40
2019-05-29T07:11:43.494Z,8.73
2019-05-29T07:14:16.763Z,7.50
2019-05-29T07:16:55.657Z,8.10
2019-05-29T07:19:29.353Z,8.20
2019-05-29T07:21:58.404Z,6.93
2019-05-29T07:24:34.578Z,6.03
2019-05-29T07:27:13.203Z,6.53
2019-05-29T07:29:45.235Z,6.37
2019-05-29T07:32:22.901Z,7.57
2019-05-29T07:35:03.685Z,7.30
2019-05-29T07:37:37.851Z,6.60
2019-05-29T07:40:14.419Z,7.07
2019-05-29T07:42:55.241Z,6.90
2019-05-29T07:45:37.957Z,7.50
2019-05-29T07:48:10.361Z,5.90
2019-05-29T07:50:46.697Z,6.50
2019-05-29T07:53:23.918Z,6.83
2019-05-29T07:55:56.970Z,6.37
2019-05-29T07:58:30.877Z,6.73
2019-05-29T08:01:12.829Z,6.20
2019-05-29T08:03:45.407Z,5.80
2019-05-29T08:06:19.982Z,6.77
2019-05-29T08:08:53.359Z,6.50
2019-05-29T08:11:26.974Z,5.70
2019-05-29T08:14:00.561Z,6.33
2019-05-29T08:16:32.300Z,6.10
2019-05-29T08:19:08.719Z,5.90
2019-05-29T08:21:48.499Z,4.30
2019-05-29T08:24:24.823Z,6.57
2019-05-29T08:26:56.598Z,5.30
2019-05-29T08:29:31.677Z,5.10
2019-05-29T08:32:04.389Z,5.07
2019-05-29T08:34:38.702Z,5.03
2019-05-29T08:37:12.446Z,5.67
2019-05-29T08:39:43.716Z,4.90
2019-05-29T08:42:23.221Z,5.37
2019-05-29T08:44:53.995Z,5.03
2019-05-29T08:47:28.496Z,4.50
2019-05-29T08:50:17.268Z,5.10
2019-05-29T08:52:35.796Z,6.70
2019-05-29T08:55:13.914Z,5.77
2019-05-29T08:57:48.440Z,6.50
2019-05-29T09:00:49.791Z,4.90
2019-05-29T09:03:19.440Z,18.13
2019-05-29T09:06:11.460Z,4.60
2019-05-29T09:08:55.332Z,5.23
2019-05-29T09:11:26.863Z,4.67
2019-05-29T09:13:59.581Z,5.17
2019-05-29T09:16:34.658Z,4.70
2019-05-29T09:19:08.304Z,4.80
2019-05-29T09:21:42.429Z,4.30
2019-05-29T09:24:19.369Z,4.47
2019-05-29T09:26:56.960Z,4.83
2019-05-29T09:29:32.416Z,5.10
2019-05-29T09:32:07.828Z,5.47
2019-05-29T09:34:39.772Z,4.97
2019-05-29T09:37:15.476Z,4.90
2019-05-29T09:39:49.793Z,5.83
2019-05-29T09:42:25.487Z,5.07
2019-05-29T09:44:58.931Z,5.53
2019-05-29T09:47:32.705Z,6.00
2019-05-29T09:50:08.800Z,5.43
2019-05-29T09:52:55.290Z,6.03
2019-05-29T09:55:39.983Z,6.57
2019-05-29T09:58:12.795Z,7.20
2019-05-29T10:00:47.174Z,7.07
2019-05-29T10:03:19.783Z,6.63
2019-05-29T10:05:55.920Z,7.37
2019-05-29T10:08:31.376Z,6.93
2019-05-29T10:11:11.360Z,8.37
2019-05-29T10:13:46.472Z,6.73
2019-05-29T10:16:22.356Z,7.27
2019-05-29T10:18:56.043Z,7.70
2019-05-29T10:21:39.953Z,7.00
2019-05-29T10:24:08.851Z,7.20
2019-05-29T10:26:43.119Z,7.03
2019-05-29T10:29:16.933Z,7.50
2019-05-29T10:31:53.425Z,7.50
2019-05-29T10:34:28.698Z,6.67
2019-05-29T10:37:00.604Z,5.87
2019-05-29T10:39:33.656Z,6.70
2019-05-29T10:42:13.719Z,6.87
2019-05-29T10:44:46.925Z,6.10
2019-05-29T10:47:18.708Z,6.33
2019-05-29T10:49:51.785Z,5.97
2019-05-29T10:52:33.423Z,6.20
2019-05-29T10:55:32.472Z,6.43
2019-05-29T10:58:06.073Z,6.40
2019-05-29T11:01:00.578Z,6.70
2019-05-29T11:03:33.579Z,6.30
2019-05-29T11:06:19.751Z,6.60
2019-05-29T11:08:52.249Z,6.27
2019-05-29T11:11:27.786Z,6.27
2019-05-29T11:14:00.153Z,5.90
2019-05-29T11:16:33.580Z,6.50
2019-05-29T11:19:06.359Z,6.17
2019-05-29T11:21:41.046Z,6.00
2019-05-29T11:24:16.814Z,6.37
2019-05-29T11:26:48.446Z,5.90
2019-05-29T11:29:22.435Z,6.70
2019-05-29T11:31:56.980Z,6.00
2019-05-29T11:34:29.401Z,5.97
2019-05-29T11:37:03.182Z,6.13
2019-05-29T11:39:37.440Z,7.33
2019-05-29T11:42:26.356Z,9.23
2019-05-29T11:44:50.859Z,8.50
2019-05-29T11:47:27.443Z,7.20
2019-05-29T11:50:18.600Z,9.37
2019-05-29T11:52:43.677Z,8.57
2019-05-29T11:55:33.852Z,8.73
2019-05-29T11:58:06.454Z,8.03
2019-05-29T12:00:39.703Z,6.63
2019-05-29T12:03:22.761Z,7.83
2019-05-29T12:05:57.592Z,7.97
2019-05-29T12:08:32.498Z,8.10
2019-05-29T12:11:07.204Z,9.30
2019-05-29T12:13:54.151Z,8.10
2019-05-29T12:16:38.207Z,9.13
2019-05-29T12:19:20.362Z,7.70
2019-05-29T12:21:56.515Z,8.47
2019-05-29T12:24:36.700Z,8.67
2019-05-29T12:27:09.550Z,8.43
2019-05-29T12:29:42.515Z,8.37
2019-05-29T12:32:22.292Z,7.00
2019-05-29T12:35:03.048Z,6.50
2019-05-29T12:37:45.243Z,6.40
2019-05-29T12:40:38.234Z,7.57
2019-05-29T12:43:25.958Z,6.80
2019-05-29T12:45:53.372Z,6.33
2019-05-29T12:48:28.286Z,6.23
2019-05-29T12:51:24.238Z,6.00
2019-05-29T12:53:58.040Z,7.90
2019-05-29T12:56:30.861Z,6.60
2019-05-29T12:59:04.700Z,6.37
2019-05-29T13:01:41.543Z,5.70
2019-05-29T13:04:18.777Z,5.60
2019-05-29T13:06:54.352Z,6.23
2019-05-29T13:09:33.160Z,5.60
2019-05-29T13:12:08.515Z,5.80
2019-05-29T13:14:40.071Z,6.30
2019-05-29T13:17:11.857Z,6.40
2019-05-29T13:19:49.492Z,5.40
2019-05-29T13:22:21.214Z,5.90
2019-05-29T13:24:59.287Z,5.57
2019-05-29T13:27:34.655Z,5.63
2019-05-29T13:30:13.121Z,5.23
2019-05-29T13:33:03.592Z,5.47
2019-05-29T13:35:50.086Z,5.37
2019-05-29T13:38:24.035Z,5.53
2019-05-29T13:41:00.475Z,4.53
2019-05-29T13:43:35.937Z,4.00
2019-05-29T13:46:09.160Z,4.97
2019-05-29T13:48:47.262Z,4.00
2019-05-29T13:51:25.405Z,4.47
2019-05-29T13:54:03.734Z,4.20
2019-05-29T13:56:32.987Z,3.40
2019-05-29T13:59:08.667Z,4.20
2019-05-29T14:01:42.269Z,2.90
2019-05-29T14:04:15.013Z,3.40
2019-05-29T14:06:47.908Z,2.80
2019-05-29T14:09:22.779Z,1.80
2019-05-29T14:11:57.049Z,2.83
2019-05-29T14:14:29.085Z,3.63
2019-05-29T14:17:04.466Z,2.93
2019-05-29T14:19:36.027Z,2.23
2019-05-29T14:22:09.290Z,2.43
2019-05-29T14:24:43.024Z,2.50
2019-05-29T14:27:14.969Z,2.53
2019-05-29T14:29:49.337Z,2.40
2019-05-29T14:32:21.221Z,2.53
2019-05-29T14:34:55.197Z,2.30
2019-05-29T14:37:28.527Z,2.83
2019-05-29T14:40:03.603Z,1.93
2019-05-29T14:42:35.348Z,1.80
2019-05-29T14:45:10.371Z,1.73
2019-05-29T14:47:47.882Z,2.50
2019-05-29T14:50:56.302Z,2.37
2019-05-29T14:53:27.559Z,2.57
2019-05-29T14:56:00.209Z,2.23
2019-05-29T14:58:34.854Z,1.80
2019-05-29T15:01:11.407Z,2.30
2019-05-29T15:03:45.331Z,2.30
2019-05-29T15:06:18.279Z,2.47
2019-05-29T15:08:51.326Z,1.90
2019-05-29T15:11:24.293Z,2.37
2019-05-29T15:13:57.264Z,2.20
2019-05-29T15:16:33.173Z,2.80
2019-05-29T15:19:06.891Z,2.90
2019-05-29T15:21:40.874Z,2.90
2019-05-29T15:24:15.904Z,3.07
2019-05-29T15:26:48.389Z,2.57
2019-05-29T15:29:24.119Z,2.80
2019-05-29T15:31:57.357Z,2.57
2019-05-29T15:34:30.631Z,3.50
2019-05-29T15:37:03.484Z,2.87
2019-05-29T15:39:37.922Z,3.10
2019-05-29T15:42:13.389Z,3.17
2019-05-29T15:44:50.021Z,3.57
2019-05-29T15:47:24.499Z,3.80
2019-05-29T15:49:59.834Z,3.20
2019-05-29T15:52:34.705Z,3.63
2019-05-29T15:55:27.372Z,3.00
2019-05-29T15:58:02.305Z,3.70
2019-05-29T16:00:40.053Z,3.53
2019-05-29T16:03:11.562Z,3.37
2019-05-29T16:05:50.047Z,3.20
2019-05-29T16:08:21.602Z,3.20
2019-05-29T16:10:57.547Z,4.03
2019-05-29T16:13:32.360Z,3.13
2019-05-29T16:16:03.580Z,3.10
2019-05-29T16:18:35.866Z,3.40
2019-05-29T16:21:23.266Z,3.33
2019-05-29T16:23:55.624Z,3.27
2019-05-29T16:26:30.268Z,3.80
2019-05-29T16:29:07.107Z,3.83
2019-05-29T16:31:41.460Z,3.47
2019-05-29T16:34:18.899Z,4.17
2019-05-29T16:36:53.399Z,3.13
2019-05-29T16:39:24.844Z,2.70
2019-05-29T16:41:57.810Z,2.83
2019-05-29T16:44:31.589Z,3.13
2019-05-29T16:47:05.674Z,2.70
2019-05-29T16:49:39.949Z,2.77
2019-05-29T16:52:14.884Z,2.93
2019-05-29T16:54:48.857Z,2.40
2019-05-29T16:57:23.238Z,2.87
2019-05-29T17:00:00.362Z,2.10
2019-05-29T17:02:33.757Z,2.47
2019-05-29T17:05:05.819Z,2.40
2019-05-29T17:07:42.015Z,2.50
2019-05-29T17:10:35.605Z,2.60
2019-05-29T17:13:09.870Z,2.37
2019-05-29T17:15:45.681Z,2.80
2019-05-29T17:18:20.490Z,2.90
2019-05-29T17:20:53.908Z,2.37
2019-05-29T17:23:27.061Z,2.40
2019-05-29T17:26:10.601Z,2.77
2019-05-29T17:28:37.889Z,2.33
2019-05-29T17:31:10.012Z,1.87
2019-05-29T17:33:43.831Z,2.23
2019-05-29T17:36:18.939Z,2.13
2019-05-29T17:38:55.496Z,2.20
2019-05-29T17:41:29.968Z,2.17
2019-05-29T17:44:06.467Z,2.30
2019-05-29T17:46:47.228Z,1.93
2019-05-29T17:49:30.962Z,1.97
2019-05-29T17:51:56.256Z,2.20
2019-05-29T17:54:27.794Z,1.80
2019-05-29T17:57:01.544Z,2.97
2019-05-29T17:59:36.089Z,4.70
2019-05-29T18:02:09.914Z,1.87
2019-05-29T18:04:43.214Z,2.23
2019-05-29T18:07:22.544Z,2.60
2019-05-29T18:09:55.198Z,2.40
2019-05-29T18:12:29.573Z,1.70
2019-05-29T18:15:10.036Z,2.00
2019-05-29T18:17:46.281Z,1.67
2019-05-29T18:20:35.749Z,2.30
2019-05-29T18:23:10.432Z,4.87
2019-05-29T18:25:47.639Z,3.30
2019-05-29T18:28:22.038Z,2.63
2019-05-29T18:31:09.837Z,2.37
2019-05-29T18:34:02.075Z,2.40
2019-05-29T18:36:36.286Z,2.40
2019-05-29T18:39:10.771Z,2.00
2019-05-29T18:41:43.497Z,2.30
2019-05-29T18:44:20.725Z,2.00
2019-05-29T18:46:55.564Z,2.00
2019-05-29T18:49:28.479Z,1.73
2019-05-29T18:52:02.627Z,2.00
2019-05-29T18:54:36.269Z,2.07
2019-05-29T18:57:15.587Z,2.37
2019-05-29T18:59:45.189Z,2.83
2019-05-29T19:02:18.900Z,2.00
2019-05-29T19:04:51.638Z,2.50
2019-05-29T19:07:27.717Z,2.30
2019-05-29T19:10:00.655Z,2.10
2019-05-29T19:12:33.484Z,2.57
2019-05-29T19:15:10.954Z,1.93
2019-05-29T19:17:49.303Z,2.27
2019-05-29T19:20:38.924Z,2.47
2019-05-29T19:23:12.585Z,2.20
2019-05-29T19:25:48.070Z,2.70
2019-05-29T19:28:35.600Z,1.93
2019-05-29T19:31:12.705Z,2.30
2019-05-29T19:33:48.921Z,1.93
2019-05-29T19:36:21.137Z,2.30
2019-05-29T19:38:55.631Z,2.37
2019-05-29T19:41:27.931Z,1.90
2019-05-29T19:44:02.392Z,2.13
2019-05-29T19:46:53.136Z,1.97
2019-05-29T19:49:16.184Z,1.93
2019-05-29T19:51:48.703Z,2.17
2019-05-29T19:54:21.595Z,2.30
2019-05-29T19:56:54.961Z,1.87
2019-05-29T19:59:27.952Z,2.37
2019-05-29T20:02:00.715Z,2.17
2019-05-29T20:04:32.713Z,1.43
2019-05-29T20:07:04.945Z,1.87
2019-05-29T20:09:42.108Z,2.20
2019-05-29T20:12:23.332Z,2.53
2019-05-29T20:15:02.263Z,1.70
2019-05-29T20:17:36.287Z,2.60
2019-05-29T20:20:10.714Z,1.60
2019-05-29T20:22:42.787Z,1.90
2019-05-29T20:25:34.960Z,1.97
2019-05-29T20:28:23.718Z,2.30
2019-05-29T20:31:12.011Z,1.93
2019-05-29T20:33:45.746Z,2.10
2019-05-29T20:36:19.792Z,2.10
2019-05-29T20:38:55.890Z,4.93
2019-05-29T20:41:28.621Z,2.10
2019-05-29T20:44:03.840Z,1.70
2019-05-29T20:46:36.870Z,2.17
2019-05-29T20:49:10.964Z,2.17
2019-05-29T20:51:46.442Z,2.17
2019-05-29T20:54:19.306Z,2.00
2019-05-29T20:56:54.539Z,2.17
2019-05-29T20:59:27.842Z,2.50
2019-05-29T21:02:02.130Z,2.60
2019-05-29T21:04:37.024Z,1.80
2019-05-29T21:07:10.043Z,2.50
2019-05-29T21:09:46.180Z,2.40
2019-05-29T21:12:20.214Z,2.30
2019-05-29T21:14:51.870Z,2.80
2019-05-29T21:17:27.323Z,2.20
2019-05-29T21:20:04.422Z,2.07
2019-05-29T21:22:36.903Z,2.40
2019-05-29T21:25:17.946Z,2.07
2019-05-29T21:27:51.332Z,2.60
2019-05-29T21:30:37.396Z,2.20
2019-05-29T21:33:14.998Z,2.50
2019-05-29T21:35:50.651Z,2.93
2019-05-29T21:38:25.931Z,1.90
2019-05-29T21:40:59.638Z,2.20
2019-05-29T21:43:33.656Z,2.27
2019-05-29T21:46:09.882Z,2.43
2019-05-29T21:49:17.580Z,2.43
2019-05-29T21:52:05.490Z,2.37
2019-05-29T21:54:39.263Z,2.77
2019-05-29T21:57:17.117Z,2.70
2019-05-29T21:59:51.185Z,3.00
2019-05-29T22:02:25.331Z,3.07
2019-05-29T22:04:59.004Z,3.30
2019-05-29T22:07:31.371Z,2.57
2019-05-29T22:10:06.190Z,3.30
2019-05-29T22:12:42.487Z,3.30
2019-05-29T22:15:35.299Z,3.67
2019-05-29T22:18:25.044Z,2.90
2019-05-29T22:21:14.969Z,3.20
2019-05-29T22:23:46.228Z,3.03
2019-05-29T22:26:22.203Z,2.63
2019-05-29T22:28:55.267Z,2.80
2019-05-29T22:31:29.385Z,3.50
2019-05-29T22:34:03.669Z,2.70
2019-05-29T22:36:40.852Z,3.47
2019-05-29T22:39:14.323Z,3.00
2019-05-29T22:41:48.159Z,3.47
2019-05-29T22:44:20.533Z,2.70
2019-05-29T22:46:53.674Z,3.40
2019-05-29T22:49:27.365Z,3.67
2019-05-29T22:52:02.502Z,3.17
2019-05-29T22:54:37.417Z,3.60
2019-05-29T22:57:11.384Z,3.10
2019-05-29T22:59:44.686Z,3.90
2019-05-29T23:02:21.771Z,3.70
2019-05-29T23:05:00.332Z,3.10
2019-05-29T23:07:36.155Z,3.37
2019-05-29T23:10:10.222Z,3.20
2019-05-29T23:12:52.828Z,3.03
2019-05-29T23:15:35.524Z,2.90
2019-05-29T23:18:09.954Z,3.20
2019-05-29T23:20:44.590Z,3.23
2019-05-29T23:23:21.281Z,2.93
2019-05-29T23:26:02.956Z,3.17
2019-05-29T23:28:34.610Z,2.97
2019-05-29T23:31:08.749Z,2.77
2019-05-29T23:33:42.628Z,3.17
2019-05-29T23:36:20.066Z,3.33
2019-05-29T23:38:55.095Z,3.47
2019-05-29T23:41:27.705Z,3.27
2019-05-29T23:44:03.742Z,3.10
2019-05-29T23:46:36.733Z,3.10
2019-05-29T23:49:09.950Z,2.60
2019-05-29T23:51:45.116Z,3.43
2019-05-29T23:54:19.823Z,3.00
2019-05-29T23:56:51.710Z,2.93
2019-05-29T23:59:27.928Z,3.30
